Taft, Ohio
Current Conditions -  °F | °C
As of 4:53 AM on Monday 26 Jan 2015 (Local Time) from KLUK Reporting Station
Overcast Overcast  
Wind Chill: 10°   Ceiling: 1600
Heat Index: 23°   Visibility: 9mi
Dew Point: 19°   Wind: 16mph
Humidity: 85%   Direction: 350°N
Pressure: 29.83"   Gusts: 24mph
Location:  39.2094°N, 84.3952°W
Report Text: KLUK 260953Z AUTO 35014G21KT 9SM OVC016 M05/M07 A2983 RMK AO2 SNE02 SLP103 P0000 T10501072
Loading
Personal Weather Stations






























Interactive Weather Map New forecast layout! Learn more

10-Day Weather Forecast

Advertisements
Track Severe Weather on mobile